Time;durP1;ratioP1;P1;durP2;ratioP2;P2;SDS_P1;SDS_P2;PMS_P1;PMS_P2;Temp;Humidity;BMP_temperature;BMP_pressure;BME280_temperature;BME280_humidity;BME280_pressure;Samples;Min_cycle;Max_cycle;Signal;HPM_P1;HPM_P2
2023/06/05 00:00:41;;;;;;;3.30;2.00;;;;;;;9.10;61.67;101161.15;105107;1260;74798;-66
2023/06/05 00:03:29;;;;;;;2.20;1.70;;;;;;;9.09;61.79;101162.73;105041;1262;84292;-66
2023/06/05 00:05:58;;;;;;;3.30;2.00;;;;;;;9.05;61.67;101161.92;105099;1261;74210;-65
2023/06/05 00:08:26;;;;;;;6.70;2.00;;;;;;;9.06;61.92;101161.39;105049;1261;69202;-65
2023/06/05 00:10:55;;;;;;;3.30;2.10;;;;;;;9.05;62.35;101161.94;105054;1260;69051;-65
2023/06/05 00:13:23;;;;;;;3.40;2.00;;;;;;;9.03;62.17;101161.63;105053;1262;73991;-65
2023/06/05 00:15:52;;;;;;;4.40;2.00;;;;;;;9.01;62.53;101159.75;105113;1262;82395;-66
2023/06/05 00:18:21;;;;;;;3.30;2.10;;;;;;;8.99;62.41;101159.61;105089;1262;72814;-65
2023/06/05 00:20:49;;;;;;;2.20;1.60;;;;;;;8.96;62.59;101158.27;105069;1261;69180;-65
2023/06/05 00:23:17;;;;;;;2.50;1.60;;;;;;;8.92;62.79;101159.73;105107;1259;69233;-66
2023/06/05 00:25:46;;;;;;;4.00;1.70;;;;;;;8.89;62.75;101160.14;105086;1263;74831;-66
2023/06/05 00:28:15;;;;;;;3.30;1.80;;;;;;;8.87;63.04;101156.87;105142;1260;83257;-65
2023/06/05 00:30:43;;;;;;;4.80;2.10;;;;;;;8.82;63.26;101157.81;104950;1264;72872;-66
2023/06/05 00:33:11;;;;;;;4.20;2.00;;;;;;;8.79;63.21;101153.16;105122;1263;69112;-66
2023/06/05 00:35:40;;;;;;;5.90;3.00;;;;;;;8.75;63.30;101150.10;105045;1264;69190;-66
2023/06/05 00:38:08;;;;;;;5.90;2.00;;;;;;;8.72;63.37;101150.84;105039;1263;73825;-65
2023/06/05 00:40:36;;;;;;;3.40;1.90;;;;;;;8.68;63.22;101152.14;105046;1263;83352;-66
2023/06/05 00:43:07;;;;;;;3.00;2.00;;;;;;;8.63;63.59;101153.62;105107;1263;73538;-66
2023/06/05 00:45:36;;;;;;;4.50;2.20;;;;;;;8.61;64.15;101153.13;105036;1261;69208;-65
2023/06/05 00:48:04;;;;;;;4.20;2.50;;;;;;;8.59;63.71;101150.90;105063;1262;69212;-66
2023/06/05 00:50:34;;;;;;;3.50;2.30;;;;;;;8.54;63.73;101149.42;105142;1263;74757;-66
2023/06/05 00:53:06;;;;;;;3.70;2.00;;;;;;;8.48;64.06;101148.81;105038;1263;83029;-65
2023/06/05 00:55:36;;;;;;;3.40;2.30;;;;;;;8.45;64.28;101145.55;105067;1261;72411;-65
2023/06/05 00:58:04;;;;;;;3.50;2.20;;;;;;;8.44;64.43;101148.53;105088;1263;69624;-65
2023/06/05 01:00:34;;;;;;;3.90;2.30;;;;;;;8.41;64.46;101144.58;105096;1263;69112;-65
2023/06/05 01:03:02;;;;;;;3.30;2.30;;;;;;;8.38;64.54;101144.77;105060;1264;74638;-65
2023/06/05 01:05:33;;;;;;;6.00;2.60;;;;;;;8.35;64.62;101141.32;105029;1267;83337;-65
2023/06/05 01:08:03;;;;;;;5.80;2.50;;;;;;;8.33;64.90;101143.62;105041;1261;73414;-65
2023/06/05 01:10:31;;;;;;;4.10;2.10;;;;;;;8.30;64.53;101149.41;105009;1273;69244;-66
2023/06/05 01:13:23;;;;;;;5.50;2.60;;;;;;;8.28;64.80;101147.36;105000;1267;69250;-65
2023/06/05 01:15:54;;;;;;;3.80;2.20;;;;;;;8.25;64.93;101146.02;105067;1264;73978;-66
2023/06/05 01:18:24;;;;;;;2.90;2.10;;;;;;;8.19;65.05;101146.63;105102;1262;83284;-65
2023/06/05 01:20:56;;;;;;;3.10;2.40;;;;;;;8.17;65.30;101146.66;104921;1260;73776;-65
2023/06/05 01:23:25;;;;;;;5.10;2.40;;;;;;;8.17;65.37;101148.23;104952;1261;69289;-66
2023/06/05 01:25:56;;;;;;;3.70;2.40;;;;;;;8.15;65.73;101143.91;105142;1263;69199;-65
2023/06/05 01:28:27;;;;;;;3.70;2.20;;;;;;;8.13;65.57;101140.46;105075;1260;75008;-65
2023/06/05 01:31:06;;;;;;;3.30;2.50;;;;;;;8.11;65.50;101138.39;105085;1262;83606;-63
2023/06/05 01:33:49;;;;;;;3.90;2.30;;;;;;;8.11;65.87;101136.30;105012;1263;73872;-65
2023/06/05 01:36:18;;;;;;;4.90;2.30;;;;;;;8.08;65.54;101138.27;105051;1263;69201;-64
2023/06/05 01:38:48;;;;;;;4.60;2.30;;;;;;;8.04;65.59;101137.79;105083;1262;69230;-65
2023/06/05 01:41:17;;;;;;;4.30;2.10;;;;;;;8.01;65.83;101135.25;105079;1260;74885;-65
2023/06/05 01:43:47;;;;;;;4.20;2.30;;;;;;;7.99;65.97;101133.52;104970;1265;82569;-65
2023/06/05 01:46:20;;;;;;;5.20;2.30;;;;;;;7.96;65.94;101133.04;105076;1261;73746;-64
2023/06/05 01:48:50;;;;;;;3.90;2.40;;;;;;;7.92;66.04;101134.48;105049;1264;69217;-65
2023/06/05 01:51:18;;;;;;;3.20;2.30;;;;;;;7.91;66.10;101134.16;105075;1258;69186;-64
2023/06/05 01:53:48;;;;;;;4.50;2.50;;;;;;;7.89;66.35;101132.63;105100;1263;73309;-64
2023/06/05 01:56:19;;;;;;;2.70;2.10;;;;;;;7.86;66.28;101129.02;105060;1261;82343;-65
2023/06/05 01:58:48;;;;;;;5.30;2.20;;;;;;;7.81;66.34;101129.08;104998;1260;73692;-65
2023/06/05 02:01:18;;;;;;;6.30;2.60;;;;;;;7.77;66.47;101129.65;104997;1261;69166;-64
2023/06/05 02:03:47;;;;;;;4.40;2.40;;;;;;;7.75;66.70;101131.06;105067;1263;69206;-64
2023/06/05 02:06:17;;;;;;;4.70;2.00;;;;;;;7.73;66.64;101130.92;105071;1262;73948;-64
2023/06/05 02:08:46;;;;;;;3.00;2.20;;;;;;;7.67;66.66;101127.19;105048;1264;83182;-64
2023/06/05 02:11:14;;;;;;;5.10;2.00;;;;;;;7.63;66.84;101126.73;105026;1260;72819;-65
2023/06/05 02:13:44;;;;;;;3.20;2.20;;;;;;;7.59;66.96;101126.23;105038;1263;69154;-64
2023/06/05 02:16:13;;;;;;;7.30;2.70;;;;;;;7.58;67.09;101124.52;105037;1264;69233;-65
2023/06/05 02:18:43;;;;;;;7.60;2.90;;;;;;;7.58;67.27;101121.90;104936;1266;74210;-65
2023/06/05 02:21:14;;;;;;;5.10;2.40;;;;;;;7.55;67.22;101119.16;105043;1264;83406;-64
2023/06/05 02:23:43;;;;;;;4.80;2.80;;;;;;;7.58;67.81;101118.27;105077;1264;74218;-64
2023/06/05 02:26:12;;;;;;;4.60;2.10;;;;;;;7.58;67.67;101118.09;105062;1261;69088;-65
2023/06/05 02:28:40;;;;;;;4.60;2.00;;;;;;;7.54;67.65;101120.05;105039;1262;69126;-64
2023/06/05 02:31:08;;;;;;;4.50;2.50;;;;;;;7.52;67.72;101121.64;105068;1259;74576;-64
2023/06/05 02:33:37;;;;;;;4.20;2.40;;;;;;;7.52;67.66;101123.91;105126;1261;82625;-64
2023/06/05 02:36:06;;;;;;;4.00;2.50;;;;;;;7.49;67.65;101123.77;105059;1264;73950;-64
2023/06/05 02:38:34;;;;;;;3.60;2.50;;;;;;;7.46;67.74;101121.55;105129;1264;69189;-64
2023/06/05 02:41:03;;;;;;;4.60;2.50;;;;;;;7.46;68.22;101121.03;105076;1262;69144;-65
2023/06/05 02:43:31;;;;;;;4.70;2.70;;;;;;;7.47;68.27;101125.19;104887;1264;75035;-65
2023/06/05 02:45:59;;;;;;;8.90;2.50;;;;;;;7.46;68.15;101124.52;105038;1261;81786;-65
2023/06/05 02:48:28;;;;;;;5.20;2.50;;;;;;;7.44;68.21;101125.91;104972;1261;73647;-65
2023/06/05 02:50:56;;;;;;;3.10;2.50;;;;;;;7.43;68.21;101123.32;105047;1261;69203;-65
2023/06/05 02:53:25;;;;;;;2.90;2.50;;;;;;;7.41;68.27;101127.34;105066;1259;69060;-64
2023/06/05 02:55:55;;;;;;;8.30;3.10;;;;;;;7.39;68.22;101124.23;105081;1262;74075;-65
2023/06/05 02:58:23;;;;;;;3.80;2.40;;;;;;;7.38;68.37;101124.23;105085;1260;83490;-64
2023/06/05 03:00:55;;;;;;;3.90;2.70;;;;;;;7.37;68.82;101124.95;105070;1264;73602;-65
2023/06/05 03:03:29;;;;;;;2.80;2.20;;;;;;;7.38;68.99;101120.77;105061;1259;69225;-65
2023/06/05 03:06:04;;;;;;;5.40;2.40;;;;;;;7.42;69.29;101124.55;105076;1262;69137;-64
2023/06/05 03:08:35;;;;;;;6.30;2.80;;;;;;;7.46;69.35;101124.50;105090;1260;73956;-65
2023/06/05 03:11:04;;;;;;;3.50;2.30;;;;;;;7.49;69.39;101120.81;105127;1261;82111;-65
2023/06/05 03:13:33;;;;;;;7.10;2.40;;;;;;;7.50;69.24;101126.71;105042;1262;72709;-64
2023/06/05 03:16:02;;;;;;;4.20;2.80;;;;;;;7.49;69.30;101123.23;105048;1262;69123;-65
2023/06/05 03:18:33;;;;;;;5.70;2.10;;;;;;;7.50;69.36;101118.70;105039;1264;69100;-64
2023/06/05 03:21:02;;;;;;;3.60;2.40;;;;;;;7.51;69.77;101120.95;105052;1260;74761;-65
2023/06/05 03:23:30;;;;;;;4.50;2.70;;;;;;;7.53;69.82;101116.77;105059;1263;83174;-65
2023/06/05 03:26:02;;;;;;;;;;;;;;;7.57;69.92;101120.35;105137;1262;73897;-64
2023/06/05 03:28:33;;;;;;;3.70;2.40;;;;;;;7.59;70.11;101123.63;105032;1261;69965;-65
2023/06/05 03:31:05;;;;;;;3.90;2.20;;;;;;;7.63;69.98;101127.08;105068;1262;69141;-65
2023/06/05 03:33:36;;;;;;;5.10;2.70;;;;;;;7.66;70.06;101125.62;105087;1264;74289;-65
2023/06/05 03:36:06;;;;;;;3.60;2.30;;;;;;;7.72;70.12;101124.33;105082;1262;83125;-65
2023/06/05 03:38:35;;;;;;;3.60;1.90;;;;;;;7.78;70.41;101127.20;105087;1261;73778;-65
2023/06/05 03:41:03;;;;;;;5.30;2.70;;;;;;;7.82;70.40;101121.59;105031;1261;69222;-65
2023/06/05 03:43:32;;;;;;;5.20;2.50;;;;;;;7.87;70.27;101123.94;105074;1260;69206;-65
2023/06/05 03:46:00;;;;;;;4.60;2.70;;;;;;;7.91;70.54;101123.37;104996;1260;74768;-65
2023/06/05 03:48:29;;;;;;;3.70;2.50;;;;;;;7.98;70.65;101126.23;105132;1260;82406;-65
2023/06/05 03:51:00;;;;;;;5.30;2.80;;;;;;;8.04;70.44;101127.54;105100;1262;71845;-65
2023/06/05 03:53:30;;;;;;;5.10;2.60;;;;;;;8.12;70.68;101125.50;105083;1259;69468;-65
2023/06/05 03:55:59;;;;;;;4.80;2.80;;;;;;;8.19;70.97;101126.24;105064;1263;69266;-65
2023/06/05 03:58:33;;;;;;;4.80;2.60;;;;;;;8.28;70.95;101126.98;105073;1260;74586;-65
2023/06/05 04:01:02;;;;;;;5.50;2.30;;;;;;;8.38;71.03;101119.35;105068;1262;83165;-65
2023/06/05 04:03:31;;;;;;;5.70;2.70;;;;;;;8.46;71.19;101122.20;105079;1258;73391;-65
2023/06/05 04:06:00;;;;;;;4.60;2.80;;;;;;;8.55;71.34;101120.14;105011;1264;69218;-65
2023/06/05 04:08:28;;;;;;;6.40;2.90;;;;;;;8.63;71.30;101121.04;105165;1262;69139;-65
2023/06/05 04:10:57;;;;;;;4.40;2.50;;;;;;;8.72;71.48;101118.42;105102;1262;74261;-65
2023/06/05 04:13:25;;;;;;;4.10;2.70;;;;;;;8.83;71.51;101117.20;105129;1260;82616;-65
2023/06/05 04:15:53;;;;;;;5.60;3.30;;;;;;;8.95;71.38;101119.59;105026;1262;73975;-65
2023/06/05 04:18:22;;;;;;;4.20;3.00;;;;;;;9.05;70.75;101114.33;105190;1260;69182;-66
2023/06/05 04:20:51;;;;;;;6.40;3.00;;;;;;;9.19;71.29;101110.39;105224;1263;69820;-65
2023/06/05 04:23:21;;;;;;;4.80;3.00;;;;;;;9.33;71.49;101114.48;105082;1259;73189;-66
2023/06/05 04:25:53;;;;;;;5.30;3.30;;;;;;;9.44;71.30;101112.16;104936;1264;83449;-65
2023/06/05 04:28:22;;;;;;;5.90;3.20;;;;;;;9.58;71.49;101118.84;104928;1260;73796;-66
2023/06/05 04:30:50;;;;;;;4.00;3.00;;;;;;;9.73;71.60;101118.16;105039;1260;69177;-66
2023/06/05 04:33:19;;;;;;;3.90;3.10;;;;;;;9.87;71.78;101122.92;105211;1263;69544;-66
2023/06/05 04:35:48;;;;;;;6.20;3.00;;;;;;;10.00;72.00;101124.54;105199;1258;74514;-66
2023/06/05 04:38:20;;;;;;;5.00;2.70;;;;;;;10.15;72.37;101126.98;105057;1260;83956;-66
2023/06/05 04:40:51;;;;;;;4.70;2.80;;;;;;;10.30;72.36;101131.36;104983;1264;73783;-66
2023/06/05 04:43:19;;;;;;;5.30;3.00;;;;;;;10.43;72.20;101126.00;105214;1259;69306;-66
2023/06/05 04:45:48;;;;;;;4.00;3.10;;;;;;;10.57;72.33;101127.39;105023;1260;69093;-66
2023/06/05 04:48:17;;;;;;;5.00;3.10;;;;;;;10.71;71.98;101127.55;105221;1264;74826;-66
2023/06/05 04:50:45;;;;;;;4.00;3.20;;;;;;;10.83;71.53;101128.99;105011;1260;83516;-66
2023/06/05 04:53:16;;;;;;;5.80;3.20;;;;;;;10.95;71.37;101128.51;105104;1260;73770;-66
2023/06/05 04:55:45;;;;;;;6.60;3.20;;;;;;;11.08;71.24;101127.79;105176;1260;69132;-66
2023/06/05 04:58:16;;;;;;;3.80;2.80;;;;;;;11.22;71.15;101129.17;105068;1265;69134;-66
2023/06/05 05:00:45;;;;;;;4.70;2.90;;;;;;;11.33;70.72;101128.33;105341;1259;74720;-66
2023/06/05 05:03:13;;;;;;;6.80;2.90;;;;;;;11.43;70.36;101124.89;105362;1260;82478;-66
2023/06/05 05:05:42;;;;;;;5.60;3.50;;;;;;;11.53;69.80;101124.75;105209;1262;72692;-67
2023/06/05 05:08:11;;;;;;;4.90;3.10;;;;;;;11.64;69.44;101123.92;104970;1264;69170;-66
2023/06/05 05:10:39;;;;;;;3.60;2.60;;;;;;;11.72;68.92;101123.32;105038;1264;69247;-66
2023/06/05 05:13:08;;;;;;;5.30;3.00;;;;;;;11.82;68.93;101124.79;105134;1263;73576;-66
2023/06/05 05:15:37;;;;;;;4.00;2.80;;;;;;;11.95;68.91;101123.00;105073;1260;83892;-64
2023/06/05 05:18:06;;;;;;;3.50;2.40;;;;;;;12.06;68.61;101124.56;105296;1262;72954;-64
2023/06/05 05:20:35;;;;;;;8.70;2.70;;;;;;;12.17;67.72;101122.82;105190;1262;69205;-64
2023/06/05 05:23:07;;;;;;;5.40;2.40;;;;;;;12.29;67.26;101124.02;105196;1262;69125;-66
2023/06/05 05:25:37;;;;;;;4.20;2.80;;;;;;;12.42;66.98;101121.32;105017;1263;73911;-66
2023/06/05 05:28:06;;;;;;;4.00;2.70;;;;;;;12.52;66.39;101121.34;105030;1261;83590;-67
2023/06/05 05:30:35;;;;;;;5.70;2.70;;;;;;;12.62;65.96;101122.92;105161;1262;72974;-68
2023/06/05 05:33:03;;;;;;;5.40;2.50;;;;;;;12.73;65.61;101123.26;105179;1259;69023;-66
2023/06/05 05:35:32;;;;;;;4.40;2.40;;;;;;;12.84;65.32;101120.40;105480;1259;69200;-62
2023/06/05 05:38:01;;;;;;;5.50;2.80;;;;;;;12.94;64.90;101124.44;104912;1260;74885;-63
2023/06/05 05:40:29;;;;;;;4.10;2.40;;;;;;;13.05;64.75;101124.23;104969;1259;83034;-65
2023/06/05 05:42:58;;;;;;;5.10;2.90;;;;;;;13.17;64.69;101127.83;105036;1259;73030;-63
2023/06/05 05:45:27;;;;;;;5.90;2.60;;;;;;;13.31;64.67;101127.36;105177;1259;69123;-64
2023/06/05 05:47:55;;;;;;;5.80;2.50;;;;;;;13.43;64.41;101127.26;105064;1260;69578;-65
2023/06/05 05:50:24;;;;;;;5.10;2.40;;;;;;;13.54;64.23;101126.86;105110;1262;75212;-65
2023/06/05 05:52:53;;;;;;;4.20;2.60;;;;;;;13.64;63.24;101132.98;105285;1262;83280;-64
2023/06/05 05:55:21;;;;;;;3.60;2.30;;;;;;;13.71;62.94;101133.75;105429;1260;73885;-64
2023/06/05 05:57:49;;;;;;;4.70;2.00;;;;;;;13.79;62.72;101136.08;104966;1260;205199;-64
2023/06/05 06:00:18;;;;;;;5.40;2.50;;;;;;;13.89;62.33;101135.91;105190;1258;69189;-65
2023/06/05 06:02:47;;;;;;;7.70;2.90;;;;;;;13.99;62.00;101135.49;105286;1262;73168;-65
2023/06/05 06:05:18;;;;;;;3.40;2.40;;;;;;;14.11;62.13;101139.41;105225;1260;82344;-64
2023/06/05 06:07:46;;;;;;;3.10;2.40;;;;;;;14.22;61.61;101137.39;105324;1259;72686;-64
2023/06/05 06:10:15;;;;;;;3.80;2.60;;;;;;;14.34;61.52;101137.43;105261;1262;69224;-64
2023/06/05 06:12:45;;;;;;;4.70;2.40;;;;;;;14.44;61.22;101133.67;105273;1259;69736;-65
2023/06/05 06:15:13;;;;;;;3.10;2.10;;;;;;;14.55;61.05;101133.27;105138;1262;73849;-65
2023/06/05 06:17:41;;;;;;;3.40;2.20;;;;;;;14.64;60.80;101131.65;105241;1260;82485;-66
2023/06/05 06:20:12;;;;;;;8.70;2.60;;;;;;;14.76;60.66;101139.20;105117;1260;72719;-66
2023/06/05 06:22:42;;;;;;;3.50;2.30;;;;;;;14.89;60.42;101136.39;105128;1262;69173;-66
2023/06/05 06:25:12;;;;;;;4.40;2.30;;;;;;;15.00;60.05;101136.77;105158;1262;69195;-65
2023/06/05 06:27:40;;;;;;;3.60;2.40;;;;;;;15.12;59.80;101135.36;105243;1260;73911;-65
2023/06/05 06:30:11;;;;;;;7.40;2.70;;;;;;;15.24;59.46;101137.46;105226;1262;83481;-65
2023/06/05 06:32:39;;;;;;;4.00;2.10;;;;;;;15.37;59.32;101138.28;105099;1259;73025;-65
2023/06/05 06:35:07;;;;;;;4.50;2.20;;;;;;;15.51;59.14;101138.04;105167;1262;69205;-66
2023/06/05 06:37:36;;;;;;;4.40;1.90;;;;;;;15.63;58.66;101136.95;105092;1260;69051;-66
2023/06/05 06:40:09;;;;;;;3.30;1.80;;;;;;;15.73;58.01;101135.30;105288;1259;73749;-65
2023/06/05 06:42:37;;;;;;;3.50;2.00;;;;;;;15.80;57.51;101137.25;105231;1260;82508;-64
2023/06/05 06:45:17;;;;;;;2.50;1.80;;;;;;;15.87;57.29;101142.02;105220;1259;74321;-61
2023/06/05 06:47:46;;;;;;;2.60;1.70;;;;;;;15.93;56.98;101142.45;105377;1260;69096;-64
2023/06/05 06:50:33;;;;;;;4.10;1.90;;;;;;;15.97;56.60;101136.79;105077;1262;69218;-62
2023/06/05 06:53:01;;;;;;;4.40;2.20;;;;;;;16.03;56.40;101141.08;105100;1262;74085;-64
2023/06/05 06:55:31;;;;;;;4.30;1.90;;;;;;;16.10;56.19;101139.18;105120;1262;83344;-63
2023/06/05 06:57:59;;;;;;;4.30;2.10;;;;;;;16.16;56.00;101142.73;105062;1264;73828;-63
2023/06/05 07:00:28;;;;;;;3.20;1.90;;;;;;;16.26;55.83;101144.20;105136;1260;69076;-63
2023/06/05 07:02:57;;;;;;;4.80;2.10;;;;;;;16.36;55.65;101143.35;105071;1259;69176;-63
2023/06/05 07:05:26;;;;;;;4.40;2.40;;;;;;;16.44;55.62;101142.41;105176;1260;73729;-63
2023/06/05 07:07:54;;;;;;;2.90;2.10;;;;;;;16.52;55.14;101136.53;105109;1262;82576;-63
2023/06/05 07:10:22;;;;;;;5.00;2.00;;;;;;;16.59;55.09;101136.55;105117;1259;73552;-62
2023/06/05 07:12:51;;;;;;;2.60;2.00;;;;;;;16.68;55.15;101136.46;105074;1262;69122;-63
2023/06/05 07:15:20;;;;;;;3.50;2.00;;;;;;;16.79;54.83;101135.23;105054;1260;69096;-62
2023/06/05 07:17:48;;;;;;;3.70;1.70;;;;;;;16.87;54.72;101136.73;105144;1260;74903;-62
2023/06/05 07:20:17;;;;;;;8.00;2.30;;;;;;;16.99;54.66;101136.31;105126;1262;83161;-62
2023/06/05 07:22:46;;;;;;;4.40;2.00;;;;;;;17.11;54.29;101137.08;105064;1259;73242;-62
2023/06/05 07:25:16;;;;;;;9.40;3.10;;;;;;;17.25;54.17;101135.48;105028;1263;69192;-61
2023/06/05 07:27:45;;;;;;;;;;;;;;;17.39;53.73;101137.56;105070;1259;69125;-62
2023/06/05 07:30:13;;;;;;;7.20;2.10;;;;;;;17.53;53.49;101132.71;105058;1263;73344;-60
2023/06/05 07:32:42;;;;;;;2.60;1.70;;;;;;;17.68;53.17;101136.88;105063;1263;83075;-63
2023/06/05 07:35:12;;;;;;;2.60;1.70;;;;;;;17.79;52.61;101136.45;105056;1263;73946;-62
2023/06/05 07:37:40;;;;;;;2.60;1.80;;;;;;;17.91;52.67;101137.58;105059;1260;69196;-64
2023/06/05 07:40:08;;;;;;;3.30;2.30;;;;;;;18.05;52.48;101139.41;105003;1263;69221;-62
2023/06/05 07:42:37;;;;;;;3.00;1.70;;;;;;;18.18;52.22;101136.55;105068;1259;74645;-62
2023/06/05 07:45:06;;;;;;;4.10;2.00;;;;;;;18.34;51.81;101135.83;105020;1263;83243;-63
2023/06/05 07:47:35;;;;;;;5.30;2.00;;;;;;;18.47;51.23;101131.34;105064;1260;73765;-63
2023/06/05 07:50:05;;;;;;;4.40;1.90;;;;;;;18.58;50.67;101128.80;104968;1259;69188;-63
2023/06/05 07:52:33;;;;;;;7.40;1.90;;;;;;;18.67;50.39;101128.27;105054;1260;69103;-62
2023/06/05 07:55:02;;;;;;;2.90;2.00;;;;;;;18.82;50.19;101129.54;105108;1260;74638;-62
2023/06/05 07:57:30;;;;;;;5.40;1.80;;;;;;;18.94;49.51;101128.23;105174;1258;83382;-63
2023/06/05 07:59:59;;;;;;;4.90;1.90;;;;;;;19.07;48.91;101127.63;105109;1260;72668;-66
2023/06/05 08:02:27;;;;;;;2.70;1.60;;;;;;;19.19;48.42;101124.39;105115;1260;69084;-66
2023/06/05 08:04:56;;;;;;;3.50;1.30;;;;;;;19.27;47.69;101127.98;105143;1262;69147;-66
2023/06/05 08:07:24;;;;;;;5.20;1.50;;;;;;;19.39;47.28;101126.73;105093;1259;74794;-66
2023/06/05 08:09:53;;;;;;;2.80;1.80;;;;;;;19.49;47.09;101125.20;105057;1260;83818;-66
2023/06/05 08:12:21;;;;;;;4.20;2.20;;;;;;;19.70;47.48;101126.00;105081;1260;73389;-67
2023/06/05 08:14:49;;;;;;;3.70;1.70;;;;;;;19.99;46.84;101124.04;105400;1259;69237;-61
2023/06/05 08:17:18;;;;;;;3.10;1.60;;;;;;;20.16;46.32;101122.86;105183;1260;69059;-66
2023/06/05 08:19:46;;;;;;;8.90;1.80;;;;;;;20.33;45.67;101122.48;105157;1262;74543;-67
2023/06/05 08:22:14;;;;;;;4.70;1.70;;;;;;;20.46;44.89;101115.92;105109;1262;83616;-66
2023/06/05 08:24:43;;;;;;;3.40;1.40;;;;;;;20.56;44.32;101111.73;105096;1262;73697;-66
2023/06/05 08:27:11;;;;;;;2.80;1.60;;;;;;;20.69;43.92;101111.03;105044;1260;69128;-67
2023/06/05 08:29:40;;;;;;;4.20;1.80;;;;;;;20.93;43.77;101113.67;105097;1260;69266;-67
2023/06/05 08:32:08;;;;;;;2.80;1.50;;;;;;;21.18;43.16;101111.40;105066;1262;74910;-63
2023/06/05 08:34:36;;;;;;;2.60;1.40;;;;;;;21.36;42.70;101111.15;105105;1262;83334;-63
2023/06/05 08:37:05;;;;;;;3.60;1.30;;;;;;;21.57;42.16;101117.02;105066;1258;72773;-62
2023/06/05 08:39:33;;;;;;;3.60;1.80;;;;;;;21.76;41.69;101112.23;105175;1262;69232;-62
2023/06/05 08:42:03;;;;;;;3.20;1.80;;;;;;;21.89;41.15;101106.64;105188;1260;69212;-62
2023/06/05 08:44:32;;;;;;;4.80;1.90;;;;;;;22.03;40.95;101107.41;105111;1260;73632;-62
2023/06/05 08:47:02;;;;;;;3.70;1.30;;;;;;;22.15;40.69;101103.87;105123;1262;83177;-62
2023/06/05 08:49:36;;;;;;;3.30;1.30;;;;;;;22.25;39.77;101104.24;105074;1257;73104;-62
2023/06/05 08:52:08;;;;;;;4.20;1.40;;;;;;;22.36;39.62;101101.10;105147;1260;69240;-63
2023/06/05 08:54:38;;;;;;;3.20;1.80;;;;;;;22.51;39.31;101101.19;105101;1260;69195;-63
2023/06/05 08:57:07;;;;;;;3.40;1.50;;;;;;;22.64;39.00;101099.13;105106;1262;73982;-62
2023/06/05 08:59:35;;;;;;;6.60;1.60;;;;;;;22.76;39.10;101103.89;105164;1259;83572;-64
2023/06/05 09:02:04;;;;;;;4.20;1.60;;;;;;;22.96;38.78;101100.59;105101;1260;73606;-66
2023/06/05 09:04:32;;;;;;;2.20;1.20;;;;;;;23.13;38.12;101099.06;105163;1261;69183;-64
2023/06/05 09:07:01;;;;;;;2.10;1.40;;;;;;;23.19;38.01;101099.02;105224;1259;69788;-63
2023/06/05 09:09:31;;;;;;;5.20;1.40;;;;;;;23.30;37.73;101101.48;105117;1260;74336;-64
2023/06/05 09:12:07;;;;;;;4.10;1.80;;;;;;;23.38;37.17;101102.95;105157;1260;83058;-64
2023/06/05 09:14:35;;;;;;;4.80;2.10;;;;;;;23.43;37.09;101102.08;105106;1258;73376;-63
2023/06/05 09:17:06;;;;;;;5.30;1.20;;;;;;;23.57;37.12;101103.25;105086;1261;69396;-63
2023/06/05 09:19:38;;;;;;;1.80;1.20;;;;;;;23.75;36.60;101103.10;105093;1260;69192;-66
2023/06/05 09:22:08;;;;;;;4.10;1.20;;;;;;;23.87;36.21;101098.50;105112;1260;74895;-66
2023/06/05 09:24:37;;;;;;;;;;;;;;;24.00;35.82;101097.26;105138;1262;83370;-67
2023/06/05 09:27:10;;;;;;;3.50;1.40;;;;;;;24.16;35.65;101097.20;105155;1263;72798;-66
2023/06/05 09:29:40;;;;;;;2.30;1.50;;;;;;;24.28;35.19;101095.48;105091;1262;69190;-67
2023/06/05 09:32:15;;;;;;;7.30;1.30;;;;;;;24.30;34.68;101090.70;105135;1262;69122;-67
2023/06/05 09:34:46;;;;;;;2.70;1.10;;;;;;;24.37;34.23;101089.77;105113;1261;74741;-66
2023/06/05 09:37:15;;;;;;;2.90;1.40;;;;;;;24.41;33.53;101089.73;105219;1262;82076;-67
2023/06/05 09:39:43;;;;;;;5.70;1.50;;;;;;;24.39;33.01;101079.77;105122;1260;73703;-66
2023/06/05 09:42:12;;;;;;;5.10;1.30;;;;;;;24.41;33.05;101073.30;105161;1262;69182;-67
2023/06/05 09:44:40;;;;;;;2.10;1.20;;;;;;;24.52;32.98;101077.44;105054;1260;69238;-67
2023/06/05 09:47:10;;;;;;;3.60;1.50;;;;;;;24.68;32.96;101077.16;105108;1260;75119;-67
2023/06/05 09:49:41;;;;;;;2.40;1.10;;;;;;;24.82;32.62;101073.73;105194;1260;83227;-67
2023/06/05 09:52:13;;;;;;;2.40;1.40;;;;;;;24.88;31.52;101073.58;105145;1260;72561;-69
2023/06/05 09:54:44;;;;;;;8.10;1.30;;;;;;;24.93;31.79;101073.53;105124;1260;69196;-66
2023/06/05 09:57:14;;;;;;;4.90;1.70;;;;;;;25.07;31.58;101073.72;105152;1258;69132;-68
2023/06/05 09:59:51;;;;;;;3.00;1.40;;;;;;;25.23;31.37;101066.64;105265;1261;74618;-69
2023/06/05 10:02:22;;;;;;;2.60;1.40;;;;;;;25.38;30.82;101062.59;105187;1260;82725;-70
2023/06/05 10:04:59;;;;;;;2.50;1.00;;;;;;;25.49;30.93;101060.94;105144;1260;73726;-71
2023/06/05 10:07:27;;;;;;;2.00;1.20;;;;;;;25.66;31.20;101053.30;105244;1259;69711;-69
2023/06/05 10:09:57;;;;;;;2.70;1.40;;;;;;;25.87;31.18;101053.73;105077;1258;69199;-70
2023/06/05 10:12:27;;;;;;;4.00;1.30;;;;;;;26.03;30.76;101054.11;105100;1260;74596;-68
2023/06/05 10:14:55;;;;;;;2.40;1.50;;;;;;;26.12;30.36;101048.94;104997;1264;83225;-69
2023/06/05 10:17:24;;;;;;;2.20;1.40;;;;;;;26.27;30.04;101043.46;105070;1262;72857;-68
2023/06/05 10:19:53;;;;;;;2.00;1.10;;;;;;;26.40;29.99;101039.69;105099;1262;69698;-71
2023/06/05 10:22:22;;;;;;;3.60;1.40;;;;;;;26.57;29.53;101041.89;105073;1262;69217;-69
2023/06/05 10:25:01;;;;;;;4.50;1.00;;;;;;;26.70;28.71;101042.81;105025;1264;75280;-69
2023/06/05 10:27:47;;;;;;;6.10;1.80;;;;;;;26.87;28.50;101041.41;105098;1260;83258;-69
2023/06/05 10:30:24;;;;;;;3.10;1.50;;;;;;;27.03;28.07;101038.80;105044;1260;74071;-70
2023/06/05 10:33:26;;;;;;;3.40;1.30;;;;;;;27.21;28.29;101039.41;105031;1259;69175;-70
2023/06/05 10:36:00;;;;;;;3.30;1.70;;;;;;;27.47;28.13;101041.13;105043;1260;69170;-70
2023/06/05 10:38:29;;;;;;;2.30;1.20;;;;;;;27.58;27.56;101037.42;105096;1260;74605;-69
2023/06/05 10:40:59;;;;;;;2.90;1.50;;;;;;;27.79;27.35;101026.85;105057;1264;83328;-70
2023/06/05 10:43:35;;;;;;;2.10;1.30;;;;;;;28.14;27.47;101027.61;105141;1262;73970;-72
2023/06/05 10:46:36;;;;;;;5.10;1.80;;;;;;;28.51;27.19;101026.64;105089;1262;69803;-71
2023/06/05 10:49:17;;;;;;;4.40;1.30;;;;;;;28.71;27.24;101023.30;105078;1260;69198;-71
2023/06/05 10:51:53;;;;;;;6.20;1.50;;;;;;;29.02;27.06;101023.13;105115;1260;74857;-71
2023/06/05 10:54:21;;;;;;;2.30;1.30;;;;;;;29.29;27.10;101026.52;105113;1262;83330;-67
2023/06/05 10:56:53;;;;;;;4.00;1.60;;;;;;;29.54;26.86;101024.25;105069;1259;73545;-71
2023/06/05 10:59:24;;;;;;;2.10;1.40;;;;;;;29.87;26.42;101025.33;105085;1260;69118;-70
2023/06/05 11:02:12;;;;;;;5.20;1.30;;;;;;;30.04;25.73;101015.56;105074;1262;69135;-70
2023/06/05 11:04:47;;;;;;;3.20;1.10;;;;;;;30.22;25.55;101012.47;105116;1262;74826;-70
2023/06/05 11:07:24;;;;;;;2.30;1.20;;;;;;;30.34;25.89;101010.88;105066;1262;83182;-70
2023/06/05 11:10:05;;;;;;;2.70;1.50;;;;;;;30.47;25.40;101020.21;105082;1262;72744;-70
2023/06/05 11:12:40;;;;;;;3.30;1.50;;;;;;;30.66;25.02;101016.22;105064;1262;69246;-71
2023/06/05 11:15:36;;;;;;;3.90;1.30;;;;;;;31.01;24.89;101010.55;105112;1262;69228;-71
2023/06/05 11:18:27;;;;;;;3.60;1.40;;;;;;;31.33;24.30;101012.63;105133;1261;75014;-71
2023/06/05 11:20:57;;;;;;;3.50;1.70;;;;;;;31.41;24.28;101010.83;105083;1262;83187;-71
2023/06/05 11:23:27;;;;;;;3.90;1.40;;;;;;;31.49;23.80;101009.19;105114;1260;73893;-70
2023/06/05 11:25:57;;;;;;;2.30;1.30;;;;;;;31.62;23.47;101001.67;105134;1260;69206;-70
2023/06/05 11:28:42;;;;;;;3.20;1.60;;;;;;;31.82;23.05;101000.29;105111;1260;69087;-71
2023/06/05 11:31:12;;;;;;;2.90;1.50;;;;;;;31.91;22.93;100997.03;105133;1260;73586;-71
2023/06/05 11:33:41;;;;;;;4.20;1.40;;;;;;;31.87;22.90;101005.80;105075;1260;82417;-71
2023/06/05 11:36:11;;;;;;;2.70;1.30;;;;;;;31.85;22.42;101009.27;105129;1262;72817;-71